Time;durP1;ratioP1;P1;durP2;ratioP2;P2;SDS_P1;SDS_P2;PMS_P1;PMS_P2;Temp;Humidity;BMP_temperature;BMP_pressure;BME280_temperature;BME280_humidity;BME280_pressure;Samples;Min_cycle;Max_cycle;Signal;HPM_P1;HPM_P2
2023/07/27 00:01:40;;;;;;;3.70;3.30;;;;;;;16.50;100.00;96505.65;110145;1242;68489;-65
2023/07/27 00:04:10;;;;;;;;;;;;;;;16.51;100.00;96506.09;110151;1251;69220;-67
2023/07/27 00:06:42;;;;;;;5.30;4.80;;;;;;;16.50;100.00;96505.98;110115;1244;59022;-69
2023/07/27 00:09:11;;;;;;;;;;;;;;;16.50;100.00;96508.32;110128;1242;58944;-69
2023/07/27 00:11:42;;;;;;;5.50;5.00;;;;;;;16.44;100.00;96509.65;110153;1243;69696;-69
2023/07/27 00:14:12;;;;;;;5.40;4.40;;;;;;;16.46;100.00;96509.69;110196;1251;69285;-69
2023/07/27 00:16:42;;;;;;;4.80;3.70;;;;;;;16.44;100.00;96511.92;110166;1244;69285;-69
2023/07/27 00:19:14;;;;;;;5.60;4.50;;;;;;;16.45;100.00;96510.27;110111;1245;58878;-68
2023/07/27 00:21:46;;;;;;;5.60;4.20;;;;;;;16.43;100.00;96506.70;110124;1245;58888;-68
2023/07/27 00:24:17;;;;;;;5.40;4.40;;;;;;;16.40;100.00;96502.88;109884;1245;69656;-66
2023/07/27 00:26:48;;;;;;;5.30;4.80;;;;;;;16.39;100.00;96495.26;109620;1244;663177;-67
2023/07/27 00:29:20;;;;;;;5.50;4.90;;;;;;;16.38;100.00;96492.60;110082;1244;69386;-68
2023/07/27 00:31:53;;;;;;;5.20;4.70;;;;;;;16.33;100.00;96482.45;110031;1247;59015;-68
2023/07/27 00:34:24;;;;;;;5.70;3.80;;;;;;;16.29;100.00;96484.78;110000;1245;58923;-66
2023/07/27 00:36:57;;;;;;;5.10;4.10;;;;;;;16.20;100.00;96486.48;110104;1244;70608;-66
2023/07/27 00:39:28;;;;;;;6.00;4.60;;;;;;;16.16;100.00;96483.83;110150;1244;69143;-67
2023/07/27 00:41:58;;;;;;;5.10;4.30;;;;;;;16.04;100.00;96480.45;110069;1244;69292;-66
2023/07/27 00:44:30;;;;;;;4.60;4.10;;;;;;;15.97;100.00;96484.81;110132;1245;58943;-67
2023/07/27 00:47:05;;;;;;;4.30;3.80;;;;;;;15.87;100.00;96482.17;110106;1244;58963;-66
2023/07/27 00:49:40;;;;;;;4.80;3.40;;;;;;;15.78;100.00;96477.20;110095;1242;70625;-66
2023/07/27 00:52:12;;;;;;;6.40;3.70;;;;;;;15.70;100.00;96478.53;110127;1245;69262;-66
2023/07/27 00:54:43;;;;;;;4.40;3.50;;;;;;;15.64;100.00;96479.17;109921;1248;68900;-66
2023/07/27 00:57:14;;;;;;;4.60;3.80;;;;;;;15.52;100.00;96480.13;109985;1245;58868;-67
2023/07/27 00:59:46;;;;;;;5.00;3.90;;;;;;;15.46;100.00;96480.29;110172;1241;58969;-68
2023/07/27 01:02:17;;;;;;;4.70;3.60;;;;;;;15.40;100.00;96484.83;110175;1243;70544;-66
2023/07/27 01:04:51;;;;;;;5.20;3.60;;;;;;;15.34;100.00;96486.63;110150;1245;68400;-67
2023/07/27 01:07:21;;;;;;;3.50;2.90;;;;;;;15.30;100.00;96493.17;110109;1244;68577;-66
2023/07/27 01:09:51;;;;;;;3.40;2.80;;;;;;;15.26;100.00;96496.03;110121;1245;58892;-65
2023/07/27 01:12:31;;;;;;;4.00;2.80;;;;;;;15.24;100.00;96501.75;110085;1244;58932;-67
2023/07/27 01:15:14;;;;;;;3.90;3.00;;;;;;;15.21;100.00;96503.98;110019;1245;71160;-67
2023/07/27 01:17:59;;;;;;;4.10;3.30;;;;;;;15.19;100.00;96507.24;110195;1243;68280;-67
2023/07/27 01:20:46;;;;;;;3.70;2.90;;;;;;;15.15;100.00;96511.31;109856;1245;68234;-68
2023/07/27 01:23:41;;;;;;;3.40;2.50;;;;;;;15.15;100.00;96514.64;110075;1243;58864;-67
2023/07/27 01:26:21;;;;;;;3.80;2.60;;;;;;;15.15;100.00;96519.58;110067;1245;58879;-67
2023/07/27 01:29:21;;;;;;;3.00;2.40;;;;;;;15.14;100.00;96520.56;110100;1243;71176;-67
2023/07/27 01:31:54;;;;;;;3.40;2.40;;;;;;;15.10;100.00;96524.10;110138;1244;68341;-67
2023/07/27 01:34:32;;;;;;;3.80;2.40;;;;;;;15.09;100.00;96524.92;110072;1245;69675;-67
2023/07/27 01:37:06;;;;;;;4.40;2.40;;;;;;;15.08;100.00;96529.10;110097;1246;58894;-66
2023/07/27 01:39:43;;;;;;;3.00;2.10;;;;;;;15.06;100.00;96531.97;110136;1245;58880;-67
2023/07/27 01:42:18;;;;;;;2.80;2.20;;;;;;;15.07;100.00;96535.71;110054;1244;70630;-67
2023/07/27 01:44:53;;;;;;;2.90;2.20;;;;;;;15.07;100.00;96539.36;110113;1243;67736;-67
2023/07/27 01:47:25;;;;;;;2.50;1.90;;;;;;;15.08;100.00;96546.68;110105;1245;68329;-67
2023/07/27 01:49:59;;;;;;;7.00;2.60;;;;;;;15.07;100.00;96546.90;110154;1244;58946;-66
2023/07/27 01:52:32;;;;;;;3.70;2.60;;;;;;;15.07;100.00;96545.71;110120;1243;58914;-66
2023/07/27 01:55:03;;;;;;;3.90;2.60;;;;;;;15.07;100.00;96548.34;110120;1242;71204;-67
2023/07/27 01:57:33;;;;;;;3.40;2.50;;;;;;;15.06;100.00;96546.30;110077;1250;69254;-68
2023/07/27 02:00:05;;;;;;;3.60;2.70;;;;;;;15.05;100.00;96544.25;109943;1250;69169;-71
2023/07/27 02:02:44;;;;;;;3.50;2.60;;;;;;;15.00;100.00;96545.11;110090;1244;58938;-67
2023/07/27 02:05:15;;;;;;;3.60;2.80;;;;;;;14.97;100.00;96544.20;110117;1244;58867;-68
2023/07/27 02:07:49;;;;;;;3.20;2.20;;;;;;;14.97;100.00;96548.25;110122;1244;70615;-67
2023/07/27 02:10:24;;;;;;;3.90;2.50;;;;;;;14.97;100.00;96550.91;110116;1245;69603;-67
2023/07/27 02:13:17;;;;;;;3.60;2.20;;;;;;;14.96;100.00;96552.78;109781;1247;69430;-67
2023/07/27 02:15:54;;;;;;;2.90;2.30;;;;;;;14.95;100.00;96552.40;110031;1244;58947;-68
2023/07/27 02:18:29;;;;;;;3.20;2.30;;;;;;;14.95;100.00;96557.30;110042;1244;58927;-66
2023/07/27 02:21:00;;;;;;;3.30;2.40;;;;;;;14.94;100.00;96559.66;110099;1244;70638;-68
2023/07/27 02:23:32;;;;;;;3.20;2.40;;;;;;;14.92;100.00;96566.85;110102;1242;68625;-67
2023/07/27 02:26:03;;;;;;;2.90;2.20;;;;;;;14.90;100.00;96576.98;109830;1244;68537;-68
2023/07/27 02:28:33;;;;;;;2.60;2.30;;;;;;;14.86;100.00;96577.85;110034;1245;58966;-67
2023/07/27 02:31:04;;;;;;;3.20;2.10;;;;;;;14.82;100.00;96578.33;110145;1245;58883;-67
2023/07/27 02:33:36;;;;;;;2.90;2.40;;;;;;;14.76;100.00;96580.08;110151;1241;69510;-68
2023/07/27 02:36:07;;;;;;;2.30;1.90;;;;;;;14.70;100.00;96578.80;110339;1244;68548;-67
2023/07/27 02:38:46;;;;;;;2.90;2.00;;;;;;;14.62;100.00;96577.70;109980;1245;68427;-66
2023/07/27 02:41:17;;;;;;;3.00;1.80;;;;;;;14.56;100.00;96580.27;109903;1246;58963;-66
2023/07/27 02:43:53;;;;;;;2.80;1.90;;;;;;;14.45;100.00;96580.45;110107;1244;58906;-66
2023/07/27 02:46:27;;;;;;;2.70;2.20;;;;;;;14.37;100.00;96581.45;109999;1244;70983;-68
2023/07/27 02:49:00;;;;;;;2.40;1.70;;;;;;;14.30;100.00;96581.83;109931;1244;69373;-68
2023/07/27 02:51:31;;;;;;;1.90;1.40;;;;;;;14.21;100.00;96583.95;110032;1243;69290;-69
2023/07/27 02:54:01;;;;;;;3.50;1.80;;;;;;;14.12;100.00;96577.09;110025;1245;58885;-68
2023/07/27 02:56:33;;;;;;;1.50;1.40;;;;;;;14.02;100.00;96579.54;110096;1244;58922;-68
2023/07/27 02:59:04;;;;;;;3.60;1.80;;;;;;;13.95;100.00;96592.63;110124;1243;71148;-67
2023/07/27 03:01:39;;;;;;;2.50;1.50;;;;;;;13.92;100.00;96598.55;110160;1243;69269;-67
2023/07/27 03:04:14;;;;;;;3.90;1.90;;;;;;;13.88;100.00;96599.52;110137;1244;68359;-67
2023/07/27 03:06:45;;;;;;;3.00;1.60;;;;;;;13.85;100.00;96603.34;109929;1245;59321;-66
2023/07/27 03:09:18;;;;;;;2.80;1.50;;;;;;;13.81;100.00;96604.02;109945;1245;58890;-66
2023/07/27 03:11:49;;;;;;;4.50;2.20;;;;;;;13.80;100.00;96607.17;110134;1244;70418;-68
2023/07/27 03:14:20;;;;;;;2.60;1.80;;;;;;;13.79;100.00;96605.86;110027;1245;69812;-65
2023/07/27 03:16:51;;;;;;;3.30;1.70;;;;;;;13.76;100.00;96607.83;110174;1245;68623;-68
2023/07/27 03:19:26;;;;;;;2.90;1.90;;;;;;;13.72;100.00;96606.81;110154;1243;58929;-68
2023/07/27 03:22:00;;;;;;;1.80;1.60;;;;;;;13.69;100.00;96605.70;110026;1244;58891;-70
2023/07/27 03:24:30;;;;;;;3.10;1.60;;;;;;;13.61;100.00;96613.14;110034;1244;69902;-68
2023/07/27 03:27:02;;;;;;;2.80;1.90;;;;;;;13.60;100.00;96623.80;109977;1245;69075;-68
2023/07/27 03:29:32;;;;;;;1.90;1.70;;;;;;;13.57;100.00;96631.05;109962;1245;69253;-68
2023/07/27 03:32:03;;;;;;;2.70;1.60;;;;;;;13.55;100.00;96640.04;110128;1245;58882;-68
2023/07/27 03:34:37;;;;;;;2.50;1.90;;;;;;;13.52;100.00;96646.96;110145;1245;58869;-68
2023/07/27 03:37:08;;;;;;;2.20;1.70;;;;;;;13.52;100.00;96647.19;109863;1248;70607;-68
2023/07/27 03:39:40;;;;;;;2.90;1.70;;;;;;;13.49;100.00;96651.23;109894;1243;70055;-68
2023/07/27 03:42:12;;;;;;;2.60;1.60;;;;;;;13.49;100.00;96652.10;109845;1245;69185;-68
2023/07/27 03:44:43;;;;;;;3.00;2.30;;;;;;;13.47;100.00;96653.57;110149;1245;58895;-68
2023/07/27 03:47:13;;;;;;;2.80;1.80;;;;;;;13.48;100.00;96656.66;110097;1244;58924;-67
2023/07/27 03:49:43;;;;;;;2.70;2.00;;;;;;;13.47;100.00;96664.73;109819;1242;71255;-67
2023/07/27 03:52:14;;;;;;;2.20;1.80;;;;;;;13.46;100.00;96675.02;109940;1245;69869;-68
2023/07/27 03:54:44;;;;;;;2.20;1.60;;;;;;;13.48;100.00;96673.42;110155;1245;68632;-68
2023/07/27 03:57:14;;;;;;;2.80;1.80;;;;;;;13.49;100.00;96674.71;109972;1244;58912;-68
2023/07/27 03:59:44;;;;;;;1.90;1.60;;;;;;;13.50;100.00;96680.03;110155;1244;58908;-66
2023/07/27 04:02:13;;;;;;;1.70;1.50;;;;;;;13.51;100.00;96682.57;110000;1245;70400;-67
2023/07/27 04:04:45;;;;;;;1.90;1.30;;;;;;;13.52;100.00;96685.42;110106;1244;68700;-67
2023/07/27 04:07:16;;;;;;;2.60;1.50;;;;;;;13.54;100.00;96687.73;109992;1243;69251;-67
2023/07/27 04:09:47;;;;;;;2.50;1.90;;;;;;;13.55;100.00;96690.95;110135;1244;58809;-67
2023/07/27 04:12:18;;;;;;;2.20;1.50;;;;;;;13.56;100.00;96694.20;110147;1242;58897;-68
2023/07/27 04:14:49;;;;;;;1.70;1.40;;;;;;;13.57;100.00;96701.98;109971;1246;70722;-67
2023/07/27 04:17:18;;;;;;;1.70;1.50;;;;;;;13.56;100.00;96702.61;110138;1245;68568;-67
2023/07/27 04:19:48;;;;;;;1.90;1.40;;;;;;;13.54;100.00;96702.11;110063;1244;68820;-68
2023/07/27 04:22:18;;;;;;;2.20;1.60;;;;;;;13.52;100.00;96707.67;110128;1245;58947;-68
2023/07/27 04:24:50;;;;;;;2.10;1.90;;;;;;;13.52;100.00;96712.46;110134;1245;58936;-68
2023/07/27 04:27:20;;;;;;;2.20;1.50;;;;;;;13.53;100.00;96715.82;110121;1244;69644;-69
2023/07/27 04:29:49;;;;;;;1.70;1.30;;;;;;;13.52;100.00;96720.88;110158;1244;69296;-68
2023/07/27 04:32:20;;;;;;;2.00;1.50;;;;;;;13.50;100.00;96723.48;110110;1243;69881;-68
2023/07/27 04:34:49;;;;;;;1.40;1.30;;;;;;;13.49;100.00;96727.95;109839;1244;58903;-68
2023/07/27 04:37:20;;;;;;;1.90;1.50;;;;;;;13.45;100.00;96733.58;110070;1245;58940;-68
2023/07/27 04:39:50;;;;;;;1.60;1.30;;;;;;;13.47;100.00;96734.98;110070;1245;71185;-68
2023/07/27 04:42:19;;;;;;;2.10;1.40;;;;;;;13.49;100.00;96736.88;109923;1244;69803;-68
2023/07/27 04:44:48;;;;;;;1.80;1.40;;;;;;;13.50;100.00;96739.54;110184;1244;69829;-67
2023/07/27 04:47:17;;;;;;;1.60;1.20;;;;;;;13.46;100.00;96742.20;110126;1242;58862;-67
2023/07/27 04:49:46;;;;;;;2.80;1.20;;;;;;;13.50;100.00;96744.47;110169;1244;58876;-68
2023/07/27 04:52:15;;;;;;;1.50;1.30;;;;;;;13.49;100.00;96741.92;110077;1243;70711;-67
2023/07/27 04:54:45;;;;;;;2.50;1.50;;;;;;;13.53;100.00;96739.29;109930;1245;68466;-67
2023/07/27 04:57:15;;;;;;;1.80;1.40;;;;;;;13.58;100.00;96740.56;109913;1244;68514;-67
2023/07/27 04:59:43;;;;;;;1.20;1.10;;;;;;;13.64;100.00;96745.81;110096;1245;58961;-68
2023/07/27 05:02:13;;;;;;;1.10;1.00;;;;;;;13.69;100.00;96747.89;110200;1245;58911;-67
2023/07/27 05:04:42;;;;;;;2.20;1.30;;;;;;;13.82;100.00;96745.80;110183;1242;70662;-67
2023/07/27 05:07:11;;;;;;;1.10;1.00;;;;;;;13.95;100.00;96746.23;110101;1244;69670;-67
2023/07/27 05:09:41;;;;;;;1.50;1.10;;;;;;;14.08;100.00;96751.13;109932;1243;68604;-67
2023/07/27 05:12:10;;;;;;;;;;;;;;;14.15;100.00;96747.52;110122;1244;58960;-67
2023/07/27 05:14:39;;;;;;;1.40;1.10;;;;;;;14.16;100.00;96739.87;110155;1245;58873;-67
2023/07/27 05:17:08;;;;;;;1.20;1.00;;;;;;;14.16;100.00;96746.87;110123;1244;70616;-67
2023/07/27 05:19:37;;;;;;;1.30;1.00;;;;;;;14.17;100.00;96752.00;110174;1244;69742;-67
2023/07/27 05:22:06;;;;;;;1.60;0.90;;;;;;;14.26;100.00;96751.09;110108;1245;69144;-67
2023/07/27 05:24:37;;;;;;;1.30;1.10;;;;;;;14.30;100.00;96754.05;110140;1245;58909;-67
2023/07/27 05:27:07;;;;;;;1.40;1.10;;;;;;;14.37;100.00;96754.09;110057;1245;58959;-67
2023/07/27 05:29:36;;;;;;;1.10;1.00;;;;;;;14.43;100.00;96755.27;109959;1245;69901;-67
2023/07/27 05:32:07;;;;;;;1.10;1.00;;;;;;;14.52;100.00;96751.91;110323;1245;69188;-67
2023/07/27 05:34:36;;;;;;;1.00;0.90;;;;;;;14.74;100.00;96753.96;110096;1244;69717;-68
2023/07/27 05:37:05;;;;;;;0.80;0.80;;;;;;;15.14;100.00;96750.96;110214;1242;58944;-67
2023/07/27 05:39:34;;;;;;;1.50;0.90;;;;;;;15.42;100.00;96749.30;110167;1246;58947;-69
2023/07/27 05:42:04;;;;;;;1.80;1.00;;;;;;;15.63;99.53;96753.45;110131;1244;70705;-66
2023/07/27 05:44:33;;;;;;;1.10;0.80;;;;;;;15.85;99.22;96756.34;110171;1245;69867;-68
2023/07/27 05:47:04;;;;;;;0.80;0.80;;;;;;;15.96;97.85;96755.68;110150;1245;70330;-67
2023/07/27 05:49:34;;;;;;;1.00;0.90;;;;;;;16.08;97.25;96753.41;110107;1245;58861;-67
2023/07/27 05:52:03;;;;;;;0.80;0.80;;;;;;;16.22;96.36;96749.02;110116;1245;58901;-67
2023/07/27 05:54:33;;;;;;;1.70;0.90;;;;;;;16.33;94.97;96750.22;109853;1243;69636;-68
2023/07/27 05:57:03;;;;;;;0.70;0.70;;;;;;;16.41;94.76;96756.02;110130;1244;68899;-67
2023/07/27 05:59:32;;;;;;;0.70;0.70;;;;;;;16.50;93.96;96752.63;109798;1245;69788;-69
2023/07/27 06:02:02;;;;;;;0.80;0.80;;;;;;;16.70;93.05;96751.10;110124;1244;58890;-68
2023/07/27 06:04:31;;;;;;;;;;;;;;;17.00;92.87;96748.27;110176;1244;58970;-68
2023/07/27 06:07:01;;;;;;;0.80;0.70;;;;;;;16.98;88.32;96743.86;110064;1245;69872;-69
2023/07/27 06:09:30;;;;;;;0.80;0.70;;;;;;;17.07;86.87;96735.02;110202;1244;69310;-68
2023/07/27 06:12:00;;;;;;;0.70;0.70;;;;;;;16.89;85.58;96739.70;110130;1246;67707;-67
2023/07/27 06:14:29;;;;;;;1.30;0.70;;;;;;;17.12;85.60;96748.68;110066;1245;58885;-70
2023/07/27 06:16:58;;;;;;;0.60;0.60;;;;;;;17.18;84.06;96755.07;110146;1243;58899;-69
2023/07/27 06:19:28;;;;;;;1.10;0.80;;;;;;;17.52;83.58;96756.23;110153;1244;70622;-69
2023/07/27 06:21:57;;;;;;;0.60;0.60;;;;;;;17.83;82.65;96764.18;110154;1244;69257;-69
2023/07/27 06:24:26;;;;;;;0.60;0.60;;;;;;;18.15;81.01;96766.44;110099;1245;68816;-66
2023/07/27 06:26:56;;;;;;;1.10;0.60;;;;;;;18.49;79.20;96767.83;110117;1244;58942;-65
2023/07/27 06:29:25;;;;;;;0.50;0.50;;;;;;;18.78;76.35;96766.41;110189;1244;58830;-68
2023/07/27 06:31:54;;;;;;;1.00;0.60;;;;;;;18.89;72.82;96766.09;110131;1244;70735;-69
2023/07/27 06:34:25;;;;;;;1.20;0.60;;;;;;;18.98;72.11;96761.11;110310;1244;68622;-68
2023/07/27 06:36:53;;;;;;;0.80;0.50;;;;;;;18.71;72.03;96761.75;110284;1243;69893;-69
2023/07/27 06:39:22;;;;;;;0.90;0.60;;;;;;;18.62;71.52;96775.02;110205;1241;58899;-70
2023/07/27 06:41:51;;;;;;;3.50;0.60;;;;;;;18.74;71.36;96783.31;110238;1245;58946;-67
2023/07/27 06:44:28;;;;;;;0.50;0.50;;;;;;;18.98;70.77;96787.59;110123;1244;70784;-68
2023/07/27 06:46:57;;;;;;;0.40;0.40;;;;;;;19.20;68.40;96791.73;110080;1246;70017;-68
2023/07/27 06:49:26;;;;;;;1.40;0.60;;;;;;;19.46;67.99;96796.03;110092;1245;69318;-69
2023/07/27 06:51:55;;;;;;;0.50;0.50;;;;;;;19.63;66.58;96798.94;110113;1245;58890;-69
2023/07/27 06:54:25;;;;;;;0.70;0.60;;;;;;;19.55;66.66;96801.17;110143;1247;58880;-68
2023/07/27 06:56:54;;;;;;;0.80;0.60;;;;;;;19.63;65.50;96807.58;110110;1244;71025;-70
2023/07/27 06:59:23;;;;;;;1.10;0.50;;;;;;;19.93;64.81;96807.95;110137;1244;69854;-69
2023/07/27 07:01:57;;;;;;;1.40;0.40;;;;;;;20.14;64.04;96810.84;110141;1245;69921;-69
2023/07/27 07:04:26;;;;;;;1.10;0.50;;;;;;;20.23;62.86;96813.70;110152;1244;58937;-69
2023/07/27 07:06:55;;;;;;;0.50;0.50;;;;;;;20.67;62.74;96815.30;110120;1245;58879;-69
2023/07/27 07:09:25;;;;;;;;;;;;;;;20.58;62.66;96826.30;110116;1245;71030;-69
2023/07/27 07:11:54;;;;;;;0.40;0.40;;;;;;;20.76;62.20;96833.42;110130;1244;69278;-69
2023/07/27 07:14:23;;;;;;;0.70;0.50;;;;;;;20.52;61.06;96838.18;110086;1252;69757;-69
2023/07/27 07:16:52;;;;;;;0.60;0.50;;;;;;;20.21;60.72;96839.97;110123;1244;58947;-69
2023/07/27 07:19:22;;;;;;;;;;;;;;;19.73;61.90;96846.10;110092;1242;58967;-68
2023/07/27 07:21:51;;;;;;;0.40;0.40;;;;;;;19.39;62.89;96850.60;110172;1245;71157;-68
2023/07/27 07:24:20;;;;;;;0.60;0.60;;;;;;;19.22;62.94;96854.48;110226;1245;69278;-68
2023/07/27 07:26:49;;;;;;;0.60;0.50;;;;;;;19.33;63.20;96855.48;109859;1245;69868;-69
2023/07/27 07:29:20;;;;;;;;;;;;;;;19.60;62.72;96853.06;110176;1246;58872;-69
2023/07/27 07:31:49;;;;;;;1.80;0.60;;;;;;;19.64;62.33;96852.96;109803;1245;58807;-68
2023/07/27 07:34:18;;;;;;;1.50;0.70;;;;;;;19.87;62.99;96847.77;110196;1245;70894;-68
2023/07/27 07:36:47;;;;;;;0.70;0.70;;;;;;;20.01;62.66;96842.30;109882;1245;69857;-68
2023/07/27 07:39:17;;;;;;;1.00;0.80;;;;;;;19.95;62.84;96853.39;110133;1246;69335;-68
2023/07/27 07:41:46;;;;;;;0.70;0.70;;;;;;;18.83;64.36;96860.56;110153;1245;58958;-69
2023/07/27 07:44:15;;;;;;;0.80;0.80;;;;;;;18.61;66.74;96870.02;110139;1244;58873;-67
2023/07/27 07:46:44;;;;;;;0.80;0.60;;;;;;;18.47;66.29;96864.17;110172;1246;70502;-68
2023/07/27 07:49:13;;;;;;;1.10;0.80;;;;;;;18.49;66.19;96865.95;110096;1250;69238;-68
2023/07/27 07:51:43;;;;;;;0.80;0.80;;;;;;;18.60;66.24;96870.45;110110;1245;69859;-69
2023/07/27 07:54:14;;;;;;;1.00;0.60;;;;;;;18.50;66.39;96870.40;110165;1245;58969;-69
2023/07/27 07:56:44;;;;;;;0.70;0.70;;;;;;;18.47;66.48;96866.84;110119;1245;59324;-68
2023/07/27 07:59:13;;;;;;;0.70;0.60;;;;;;;18.70;66.97;96873.22;110114;1245;70991;-68
2023/07/27 08:01:42;;;;;;;2.40;0.70;;;;;;;18.41;65.91;96876.34;110157;1244;69662;-68
2023/07/27 08:04:11;;;;;;;1.00;0.80;;;;;;;18.85;64.64;96875.75;110102;1244;69209;-68
2023/07/27 08:06:40;;;;;;;2.00;0.60;;;;;;;18.75;65.26;96883.80;110146;1245;58938;-68
2023/07/27 08:09:10;;;;;;;0.90;0.70;;;;;;;19.45;62.72;96882.02;110138;1245;58950;-68
2023/07/27 08:11:41;;;;;;;0.70;0.60;;;;;;;20.29;61.22;96879.83;110153;1244;70591;-68
2023/07/27 08:14:10;;;;;;;1.20;0.60;;;;;;;20.03;59.81;96888.17;110197;1246;68601;-67
2023/07/27 08:16:39;;;;;;;0.90;0.70;;;;;;;19.07;62.29;96896.02;110080;1242;69760;-69
2023/07/27 08:19:08;;;;;;;0.80;0.80;;;;;;;18.61;64.33;96898.98;110074;1245;58878;-68
2023/07/27 08:21:37;;;;;;;1.10;0.60;;;;;;;18.77;62.54;96893.83;109896;1245;58923;-68
2023/07/27 08:24:07;;;;;;;1.50;0.70;;;;;;;18.79;62.71;96899.54;110129;1247;71226;-68
2023/07/27 08:26:36;;;;;;;;;;;;;;;18.38;64.67;96898.95;110064;1245;69096;-67
2023/07/27 08:29:05;;;;;;;0.70;0.70;;;;;;;18.62;64.79;96902.36;110082;1244;69251;-68
2023/07/27 08:31:34;;;;;;;1.00;0.70;;;;;;;18.62;64.37;96900.75;110082;1245;58899;-68
2023/07/27 08:34:03;;;;;;;1.60;0.70;;;;;;;18.59;64.50;96897.95;109932;1244;58846;-68
2023/07/27 08:36:33;;;;;;;1.70;0.90;;;;;;;18.53;64.89;96899.55;110156;1244;70589;-68
2023/07/27 08:39:03;;;;;;;0.80;0.60;;;;;;;18.59;63.09;96898.79;110152;1245;69294;-67
2023/07/27 08:41:32;;;;;;;1.10;0.70;;;;;;;18.66;63.67;96897.85;110178;1242;69217;-67
2023/07/27 08:44:02;;;;;;;1.10;0.70;;;;;;;19.12;62.79;96892.64;110130;1242;59278;-68
2023/07/27 08:46:31;;;;;;;1.50;0.90;;;;;;;18.89;64.11;96895.06;110167;1245;58894;-69
2023/07/27 08:49:04;;;;;;;1.30;0.60;;;;;;;18.63;64.88;96893.98;110131;1247;70643;-67
2023/07/27 08:51:34;;;;;;;0.80;0.70;;;;;;;18.86;64.90;96900.39;110114;1245;69079;-66
2023/07/27 08:54:03;;;;;;;1.00;0.70;;;;;;;19.03;62.59;96897.56;110047;1246;68499;-66
2023/07/27 08:56:32;;;;;;;1.20;0.70;;;;;;;18.95;61.99;96899.38;110116;1246;58932;-67
2023/07/27 08:59:02;;;;;;;1.30;0.70;;;;;;;18.75;63.24;96910.46;110091;1244;58909;-66
2023/07/27 09:01:32;;;;;;;1.10;0.70;;;;;;;18.51;62.82;96913.91;110076;1246;71195;-65
2023/07/27 09:04:01;;;;;;;1.40;0.70;;;;;;;18.20;64.57;96913.41;110051;1243;69848;-68
2023/07/27 09:06:44;;;;;;;0.60;0.60;;;;;;;18.26;64.82;96909.95;110131;1241;69220;-65
2023/07/27 09:09:25;;;;;;;1.10;0.80;;;;;;;18.08;64.66;96908.34;110079;1245;58878;-67
2023/07/27 09:11:54;;;;;;;1.10;0.90;;;;;;;17.97;64.89;96908.30;110326;1245;58874;-66
2023/07/27 09:14:23;;;;;;;0.90;0.80;;;;;;;17.73;65.97;96908.97;110115;1242;71630;-67
2023/07/27 09:17:01;;;;;;;1.90;0.90;;;;;;;17.56;66.47;96907.27;110124;1242;69638;-67
2023/07/27 09:19:36;;;;;;;1.20;0.70;;;;;;;17.53;67.46;96910.94;110109;1246;70378;-67
2023/07/27 09:22:06;;;;;;;1.60;0.90;;;;;;;17.77;67.48;96910.48;110164;1244;58924;-67
2023/07/27 09:24:35;;;;;;;0.90;0.80;;;;;;;18.10;68.15;96911.77;110176;1244;58885;-67
2023/07/27 09:27:10;;;;;;;0.60;0.60;;;;;;;18.51;66.11;96915.70;110149;1245;70666;-67
2023/07/27 09:29:41;;;;;;;0.70;0.70;;;;;;;18.70;64.21;96918.02;110110;1241;70188;-67
2023/07/27 09:32:10;;;;;;;0.80;0.80;;;;;;;18.71;64.47;96921.53;110138;1245;70853;-67
2023/07/27 09:34:39;;;;;;;0.80;0.60;;;;;;;18.88;64.65;96916.60;110137;1246;58910;-66
2023/07/27 09:37:08;;;;;;;0.70;0.60;;;;;;;19.09;64.32;96922.23;110080;1244;58877;-67
2023/07/27 09:39:42;;;;;;;1.60;0.90;;;;;;;19.23;63.62;96922.25;110294;1242;71198;-65
2023/07/27 09:42:14;;;;;;;1.00;0.90;;;;;;;18.99;61.91;96917.42;110202;1246;69103;-68
2023/07/27 09:44:50;;;;;;;1.30;0.70;;;;;;;18.68;63.23;96919.17;110112;1244;68539;-68
2023/07/27 09:47:20;;;;;;;0.70;0.70;;;;;;;18.66;64.70;96920.81;110095;1245;58894;-69
2023/07/27 09:49:52;;;;;;;1.10;0.70;;;;;;;18.47;64.94;96914.49;110163;1246;58873;-69
2023/07/27 09:52:23;;;;;;;1.50;0.70;;;;;;;18.57;65.22;96911.27;110114;1241;70594;-69
2023/07/27 09:54:55;;;;;;;1.00;0.60;;;;;;;18.58;65.91;96910.92;110194;1246;69133;-68
2023/07/27 09:57:26;;;;;;;0.80;0.70;;;;;;;18.73;65.32;96912.08;110148;1244;69847;-69
2023/07/27 09:59:55;;;;;;;0.70;0.70;;;;;;;18.75;64.69;96915.23;110132;1244;58942;-69
2023/07/27 10:02:24;;;;;;;0.60;0.50;;;;;;;18.50;63.74;96906.27;110069;1245;58950;-69
2023/07/27 10:05:03;;;;;;;0.70;0.70;;;;;;;18.53;63.23;96906.79;110154;1245;71182;-67
2023/07/27 10:07:32;;;;;;;1.00;0.70;;;;;;;18.76;63.49;96906.82;110079;1245;68844;-67
2023/07/27 10:10:24;;;;;;;0.50;0.50;;;;;;;19.17;61.95;96901.33;110060;1245;69837;-67
2023/07/27 10:12:57;;;;;;;1.20;0.70;;;;;;;19.42;61.73;96899.73;110055;1252;59031;-67
2023/07/27 10:15:28;;;;;;;1.10;0.70;;;;;;;19.82;61.53;96893.23;109888;1244;58890;-68
2023/07/27 10:17:59;;;;;;;0.80;0.60;;;;;;;20.60;58.46;96883.69;109995;1245;70566;-68
2023/07/27 10:20:33;;;;;;;1.00;0.60;;;;;;;21.01;53.78;96871.58;109935;1244;68867;-68
2023/07/27 10:23:20;;;;;;;0.70;0.60;;;;;;;21.18;54.82;96876.92;109970;1243;68878;-68
2023/07/27 10:25:55;;;;;;;0.60;0.50;;;;;;;21.00;53.41;96878.02;109958;1249;58909;-68
2023/07/27 10:28:43;;;;;;;0.60;0.40;;;;;;;21.20;53.46;96885.29;110050;1244;58854;-69
2023/07/27 10:31:24;;;;;;;0.70;0.60;;;;;;;21.80;53.97;96884.05;110046;1244;71159;-68
2023/07/27 10:33:59;;;;;;;1.50;0.60;;;;;;;21.74;51.88;96899.32;109966;1245;69268;-68
2023/07/27 10:36:52;;;;;;;2.10;0.70;;;;;;;21.89;52.55;96901.67;109812;1251;68827;-69
2023/07/27 10:39:35;;;;;;;0.70;0.70;;;;;;;21.88;51.10;96900.60;109886;1245;58883;-68
2023/07/27 10:42:14;;;;;;;0.70;0.70;;;;;;;22.28;51.53;96900.94;109915;1244;58901;-69
2023/07/27 10:44:48;;;;;;;0.90;0.60;;;;;;;22.55;51.10;96904.06;109928;1245;71549;-67
2023/07/27 10:47:20;;;;;;;0.60;0.60;;;;;;;22.71;51.01;96902.10;110044;1244;69126;-69
2023/07/27 10:49:52;;;;;;;0.60;0.60;;;;;;;22.78;49.44;96899.55;109969;1246;69319;-67
2023/07/27 10:52:22;;;;;;;1.40;0.70;;;;;;;22.83;47.23;96890.83;110060;1245;58874;-68
2023/07/27 10:54:53;;;;;;;1.40;0.60;;;;;;;22.66;46.70;96893.35;110031;1244;58940;-68
2023/07/27 10:57:24;;;;;;;1.60;0.80;;;;;;;22.39;47.32;96887.48;109848;1245;70108;-66
2023/07/27 10:59:54;;;;;;;0.80;0.70;;;;;;;22.18;47.54;96881.64;109838;1245;69204;-68
2023/07/27 11:02:26;;;;;;;;;;;;;;;21.79;48.30;96888.80;110036;1247;70236;-69
2023/07/27 11:04:57;;;;;;;1.00;0.90;;;;;;;21.51;49.48;96891.29;109784;1243;58950;-69
2023/07/27 11:07:33;;;;;;;0.90;0.80;;;;;;;21.27;50.47;96898.88;109885;1249;58887;-67
2023/07/27 11:10:11;;;;;;;1.30;0.90;;;;;;;21.20;51.94;96903.13;109915;1245;71165;-68
2023/07/27 11:12:52;;;;;;;1.30;1.00;;;;;;;21.20;51.40;96901.33;109924;1244;69433;-68
2023/07/27 11:15:23;;;;;;;1.30;0.90;;;;;;;21.17;52.33;96900.05;110053;1245;69271;-69
2023/07/27 11:17:57;;;;;;;2.80;0.90;;;;;;;21.34;52.91;96894.60;109858;1244;58935;-68
2023/07/27 11:20:30;;;;;;;1.50;1.10;;;;;;;21.44;53.07;96902.98;109922;1245;58944;-67
2023/07/27 11:22:59;;;;;;;1.70;1.10;;;;;;;21.41;52.60;96907.17;109941;1245;71166;-69
2023/07/27 11:25:34;;;;;;;3.30;1.10;;;;;;;21.37;51.90;96913.44;109807;1244;69284;-67
2023/07/27 11:28:04;;;;;;;1.60;1.00;;;;;;;21.64;52.51;96918.89;109785;1246;69873;-66
2023/07/27 11:30:36;;;;;;;1.20;1.00;;;;;;;21.83;52.20;96915.68;109774;1246;58962;-68
2023/07/27 11:33:05;;;;;;;1.80;0.90;;;;;;;22.03;53.19;96925.09;110053;1244;58983;-68
2023/07/27 11:35:44;;;;;;;;;;;;;;;22.11;50.81;96925.16;109914;1245;70478;-69
2023/07/27 11:38:13;;;;;;;1.80;1.10;;;;;;;21.95;49.96;96925.41;110002;1245;67539;-68
2023/07/27 11:40:48;;;;;;;1.40;1.00;;;;;;;21.73;50.96;96928.30;109857;1246;69274;-69
2023/07/27 11:43:17;;;;;;;2.70;1.20;;;;;;;21.26;52.08;96933.72;109940;1244;58906;-69
2023/07/27 11:45:47;;;;;;;1.60;1.20;;;;;;;21.06;52.52;96930.36;109905;1244;58887;-68